sensor_id;sensor_type;location;lat;lon;timestamp;pressure;altitude;pressure_sealevel;temperature;humidity
75063;BME280;63981;51.052;13.754;2022-11-20T00:00:39;100157.13;;;-4.74;84.41
75063;BME280;63981;51.052;13.754;2022-11-20T00:01:40;100150.31;;;-4.80;84.22
75063;BME280;63981;51.052;13.754;2022-11-20T00:02:41;100105.00;;;-5.08;83.97
75063;BME280;63981;51.052;13.754;2022-11-20T00:03:42;100081.09;;;-5.22;83.81
75063;BME280;63981;51.052;13.754;2022-11-20T00:04:42;100152.03;;;-4.86;83.48
75063;BME280;63981;51.052;13.754;2022-11-20T00:05:43;100154.59;;;-4.85;83.37
75063;BME280;63981;51.052;13.754;2022-11-20T00:06:44;100153.75;;;-4.85;83.67
75063;BME280;63981;51.052;13.754;2022-11-20T00:07:44;100153.72;;;-4.79;83.71
75063;BME280;63981;51.052;13.754;2022-11-20T00:08:46;100156.28;;;-4.79;83.22
75063;BME280;63981;51.052;13.754;2022-11-20T00:09:47;100151.16;;;-4.85;83.29
75063;BME280;63981;51.052;13.754;2022-11-20T00:10:47;100145.19;;;-4.89;83.41
75063;BME280;63981;51.052;13.754;2022-11-20T00:11:48;100098.19;;;-5.14;83.29
75063;BME280;63981;51.052;13.754;2022-11-20T00:12:48;100138.31;;;-4.87;83.50
75063;BME280;63981;51.052;13.754;2022-11-20T00:13:50;100148.63;;;-4.88;83.26
75063;BME280;63981;51.052;13.754;2022-11-20T00:14:51;100060.66;;;-5.42;83.66
75063;BME280;63981;51.052;13.754;2022-11-20T00:15:56;100137.47;;;-4.81;83.12
75063;BME280;63981;51.052;13.754;2022-11-20T00:16:57;100148.59;;;-4.81;83.57
75063;BME280;63981;51.052;13.754;2022-11-20T00:17:58;100139.22;;;-4.92;83.78
75063;BME280;63981;51.052;13.754;2022-11-20T00:18:58;100135.78;;;-4.96;83.90
75063;BME280;63981;51.052;13.754;2022-11-20T00:19:59;100142.66;;;-4.96;83.76
75063;BME280;63981;51.052;13.754;2022-11-20T00:21:04;100144.38;;;-5.00;83.43
75063;BME280;63981;51.052;13.754;2022-11-20T00:22:06;100085.47;;;-5.40;83.65
75063;BME280;63981;51.052;13.754;2022-11-20T00:23:06;100142.66;;;-4.99;83.62
75063;BME280;63981;51.052;13.754;2022-11-20T00:24:08;100144.41;;;-5.01;83.69
75063;BME280;63981;51.052;13.754;2022-11-20T00:25:10;100143.53;;;-5.02;83.96
75063;BME280;63981;51.052;13.754;2022-11-20T00:26:14;100144.38;;;-4.97;83.99
75063;BME280;63981;51.052;13.754;2022-11-20T00:27:15;100142.63;;;-4.95;83.40
75063;BME280;63981;51.052;13.754;2022-11-20T00:28:15;100142.66;;;-4.99;83.48
75063;BME280;63981;51.052;13.754;2022-11-20T00:29:16;100092.28;;;-5.31;83.39
75063;BME280;63981;51.052;13.754;2022-11-20T00:30:17;100041.88;;;-5.61;83.66
75063;BME280;63981;51.052;13.754;2022-11-20T00:31:18;100047.88;;;-5.60;83.47
75063;BME280;63981;51.052;13.754;2022-11-20T00:32:18;100141.84;;;-5.03;83.05
75063;BME280;63981;51.052;13.754;2022-11-20T00:33:19;100142.72;;;-5.06;83.17
75063;BME280;63981;51.052;13.754;2022-11-20T00:34:20;100153.00;;;-5.06;83.28
75063;BME280;63981;51.052;13.754;2022-11-20T00:35:20;100150.41;;;-5.02;83.29
75063;BME280;63981;51.052;13.754;2022-11-20T00:36:25;100145.28;;;-5.06;83.83
75063;BME280;63981;51.052;13.754;2022-11-20T00:37:26;100109.44;;;-5.33;83.41
75063;BME280;63981;51.052;13.754;2022-11-20T00:38:26;100156.41;;;-5.08;83.48
75063;BME280;63981;51.052;13.754;2022-11-20T00:39:27;100150.41;;;-5.04;83.43
75063;BME280;63981;51.052;13.754;2022-11-20T00:40:28;100104.28;;;-5.35;83.30
75063;BME280;63981;51.052;13.754;2022-11-20T00:41:29;100157.28;;;-5.11;83.49
75063;BME280;63981;51.052;13.754;2022-11-20T00:42:30;100155.59;;;-5.13;83.29
75063;BME280;63981;51.052;13.754;2022-11-20T00:43:33;100147.03;;;-5.21;83.71
75063;BME280;63981;51.052;13.754;2022-11-20T00:44:34;100154.72;;;-5.12;83.99
75063;BME280;63981;51.052;13.754;2022-11-20T00:45:34;100159.84;;;-5.11;83.96
75063;BME280;63981;51.052;13.754;2022-11-20T00:46:35;100163.28;;;-5.13;83.26
75063;BME280;63981;51.052;13.754;2022-11-20T00:47:36;100164.16;;;-5.17;83.89
75063;BME280;63981;51.052;13.754;2022-11-20T00:48:37;100122.28;;;-5.39;83.96
75063;BME280;63981;51.052;13.754;2022-11-20T00:49:38;100171.03;;;-5.21;83.85
75063;BME280;63981;51.052;13.754;2022-11-20T00:50:39;100062.50;;;-5.82;83.82
75063;BME280;63981;51.052;13.754;2022-11-20T00:51:41;100122.25;;;-5.30;83.63
75063;BME280;63981;51.052;13.754;2022-11-20T00:52:42;100168.38;;;-4.99;83.68
75063;BME280;63981;51.052;13.754;2022-11-20T00:53:42;100175.22;;;-4.98;83.40
75063;BME280;63981;51.052;13.754;2022-11-20T00:54:43;100071.78;;;-5.48;83.69
75063;BME280;63981;51.052;13.754;2022-11-20T00:56:02;100164.13;;;-5.03;83.26
75063;BME280;63981;51.052;13.754;2022-11-20T00:57:03;100169.28;;;-5.16;83.66
75063;BME280;63981;51.052;13.754;2022-11-20T00:58:04;100171.88;;;-5.17;83.88
75063;BME280;63981;51.052;13.754;2022-11-20T00:59:04;100172.69;;;-5.11;83.84
75063;BME280;63981;51.052;13.754;2022-11-20T01:00:06;100154.75;;;-5.23;83.63
75063;BME280;63981;51.052;13.754;2022-11-20T01:01:20;100168.41;;;-5.09;83.58
75063;BME280;63981;51.052;13.754;2022-11-20T01:02:22;100036.84;;;-5.84;83.23
75063;BME280;63981;51.052;13.754;2022-11-20T01:03:23;100166.69;;;-5.07;83.14
75063;BME280;63981;51.052;13.754;2022-11-20T01:04:23;100169.28;;;-5.14;83.18
75063;BME280;63981;51.052;13.754;2022-11-20T01:05:24;100055.66;;;-5.82;83.28
75063;BME280;63981;51.052;13.754;2022-11-20T01:06:27;100100.91;;;-5.52;83.41
75063;BME280;63981;51.052;13.754;2022-11-20T01:07:28;100164.16;;;-5.16;83.00
75063;BME280;63981;51.052;13.754;2022-11-20T01:08:30;100167.56;;;-5.11;82.92
75063;BME280;63981;51.052;13.754;2022-11-20T01:09:31;100178.69;;;-5.10;83.17
75063;BME280;63981;51.052;13.754;2022-11-20T01:10:32;100168.44;;;-5.13;83.21
75063;BME280;63981;51.052;13.754;2022-11-20T01:11:35;100176.13;;;-5.10;83.03
75063;BME280;63981;51.052;13.754;2022-11-20T01:12:36;100169.28;;;-5.14;82.74
75063;BME280;63981;51.052;13.754;2022-11-20T01:13:37;100164.97;;;-5.09;83.20
75063;BME280;63981;51.052;13.754;2022-11-20T01:14:37;100169.25;;;-5.10;83.44
75063;BME280;63981;51.052;13.754;2022-11-20T01:15:38;100164.97;;;-5.09;82.93
75063;BME280;63981;51.052;13.754;2022-11-20T01:16:40;100163.22;;;-4.99;82.73
75063;BME280;63981;51.052;13.754;2022-11-20T01:17:41;100176.97;;;-5.05;82.85
75063;BME280;63981;51.052;13.754;2022-11-20T01:18:42;100152.19;;;-5.17;82.96
75063;BME280;63981;51.052;13.754;2022-11-20T01:19:44;100165.00;;;-5.12;83.01
75063;BME280;63981;51.052;13.754;2022-11-20T01:20:44;100165.00;;;-5.12;83.31
75063;BME280;63981;51.052;13.754;2022-11-20T01:21:48;100094.06;;;-5.47;83.16
75063;BME280;63981;51.052;13.754;2022-11-20T01:22:49;100163.25;;;-5.09;83.29
75063;BME280;63981;51.052;13.754;2022-11-20T01:23:51;100163.28;;;-5.07;83.48
75063;BME280;63981;51.052;13.754;2022-11-20T01:24:52;100160.69;;;-5.04;83.02
75063;BME280;63981;51.052;13.754;2022-11-20T01:25:52;100157.28;;;-5.06;83.15
75063;BME280;63981;51.052;13.754;2022-11-20T01:26:53;100158.94;;;-4.94;82.92
75063;BME280;63981;51.052;13.754;2022-11-20T01:27:54;100107.72;;;-5.39;82.60
75063;BME280;63981;51.052;13.754;2022-11-20T01:28:56;100153.84;;;-5.10;83.44
75063;BME280;63981;51.052;13.754;2022-11-20T01:29:57;100158.13;;;-5.12;83.22
75063;BME280;63981;51.052;13.754;2022-11-20T01:30:57;100150.44;;;-5.12;83.26
75063;BME280;63981;51.052;13.754;2022-11-20T01:31:58;100156.41;;;-5.10;83.15
75063;BME280;63981;51.052;13.754;2022-11-20T01:32:59;100157.31;;;-5.17;83.41
75063;BME280;63981;51.052;13.754;2022-11-20T01:34:02;100068.47;;;-5.70;83.13
75063;BME280;63981;51.052;13.754;2022-11-20T01:35:03;100152.16;;;-5.12;83.59
75063;BME280;63981;51.052;13.754;2022-11-20T01:36:06;100159.88;;;-5.14;83.32
75063;BME280;63981;51.052;13.754;2022-11-20T01:37:07;100159.84;;;-5.09;83.28
75063;BME280;63981;51.052;13.754;2022-11-20T01:38:07;100153.00;;;-5.07;83.35
75063;BME280;63981;51.052;13.754;2022-11-20T01:40:12;100150.47;;;-5.16;83.25
75063;BME280;63981;51.052;13.754;2022-11-20T01:41:13;100150.47;;;-5.19;83.57
75063;BME280;63981;51.052;13.754;2022-11-20T01:42:34;100159.03;;;-5.22;83.44
75063;BME280;63981;51.052;13.754;2022-11-20T01:44:02;100151.31;;;-5.23;83.64
75063;BME280;63981;51.052;13.754;2022-11-20T01:46:59;100159.91;;;-5.35;83.91
75063;BME280;63981;51.052;13.754;2022-11-20T01:48:01;100106.06;;;-5.53;83.55
75063;BME280;63981;51.052;13.754;2022-11-20T01:49:15;100149.56;;;-5.12;83.99
75063;BME280;63981;51.052;13.754;2022-11-20T01:50:23;100089.81;;;-5.55;83.38
75063;BME280;63981;51.052;13.754;2022-11-20T01:51:29;100148.72;;;-5.14;83.62
75063;BME280;63981;51.052;13.754;2022-11-20T01:52:39;100150.44;;;-5.07;83.49
75063;BME280;63981;51.052;13.754;2022-11-20T01:53:41;100143.56;;;-5.11;83.02
75063;BME280;63981;51.052;13.754;2022-11-20T01:54:44;100140.19;;;-5.19;83.10
75063;BME280;63981;51.052;13.754;2022-11-20T01:55:50;100147.91;;;-5.24;82.76
75063;BME280;63981;51.052;13.754;2022-11-20T01:56:54;100135.97;;;-5.32;82.92
75063;BME280;63981;51.052;13.754;2022-11-20T01:57:57;100153.06;;;-5.21;82.63
75063;BME280;63981;51.052;13.754;2022-11-20T01:59:01;100154.75;;;-5.24;82.95
75063;BME280;63981;51.052;13.754;2022-11-20T02:00:09;100089.81;;;-5.55;83.76
75063;BME280;63981;51.052;13.754;2022-11-20T02:01:14;100144.47;;;-5.21;83.14
75063;BME280;63981;51.052;13.754;2022-11-20T02:02:15;100128.25;;;-5.37;83.02
75063;BME280;63981;51.052;13.754;2022-11-20T02:03:16;100151.31;;;-5.16;83.03
75063;BME280;63981;51.052;13.754;2022-11-20T02:04:18;100147.84;;;-5.10;83.60
75063;BME280;63981;51.052;13.754;2022-11-20T02:05:38;100079.50;;;-5.42;83.51
75063;BME280;63981;51.052;13.754;2022-11-20T02:06:48;100131.63;;;-5.23;83.28
75063;BME280;63981;51.052;13.754;2022-11-20T02:07:50;100102.66;;;-5.55;83.13
75063;BME280;63981;51.052;13.754;2022-11-20T02:08:51;100139.38;;;-5.37;83.40
75063;BME280;63981;51.052;13.754;2022-11-20T02:09:52;100100.09;;;-5.66;83.05
75063;BME280;63981;51.052;13.754;2022-11-20T02:10:53;100144.50;;;-5.35;82.84
75063;BME280;63981;51.052;13.754;2022-11-20T02:11:54;100144.53;;;-5.37;83.12
75063;BME280;63981;51.052;13.754;2022-11-20T02:12:56;100141.09;;;-5.34;82.76
75063;BME280;63981;51.052;13.754;2022-11-20T02:14:15;100068.50;;;-5.82;82.70
75063;BME280;63981;51.052;13.754;2022-11-20T02:15:16;100150.53;;;-5.42;83.04
75063;BME280;63981;51.052;13.754;2022-11-20T02:16:30;100089.00;;;-5.74;82.93
75063;BME280;63981;51.052;13.754;2022-11-20T02:17:31;100114.63;;;-5.60;82.59
75063;BME280;63981;51.052;13.754;2022-11-20T02:18:32;100144.56;;;-5.43;82.81
75063;BME280;63981;51.052;13.754;2022-11-20T02:19:33;100090.72;;;-5.70;82.75
75063;BME280;63981;51.052;13.754;2022-11-20T02:20:34;100135.16;;;-5.47;82.91
75063;BME280;63981;51.052;13.754;2022-11-20T02:23:05;100083.00;;;-5.75;82.99
75063;BME280;63981;51.052;13.754;2022-11-20T02:24:14;100124.03;;;-5.50;83.24
75063;BME280;63981;51.052;13.754;2022-11-20T02:25:16;100122.31;;;-5.60;83.06
75063;BME280;63981;51.052;13.754;2022-11-20T02:26:18;100124.88;;;-5.50;83.23
75063;BME280;63981;51.052;13.754;2022-11-20T02:27:21;100038.66;;;-6.09;83.29
75063;BME280;63981;51.052;13.754;2022-11-20T02:28:23;100130.03;;;-5.53;83.38
75063;BME280;63981;51.052;13.754;2022-11-20T02:29:47;100113.78;;;-5.61;83.32
75063;BME280;63981;51.052;13.754;2022-11-20T02:30:50;100125.75;;;-5.54;83.34
75063;BME280;63981;51.052;13.754;2022-11-20T02:31:51;100127.47;;;-5.56;83.84
75063;BME280;63981;51.052;13.754;2022-11-20T02:32:54;100127.47;;;-5.57;83.34
75063;BME280;63981;51.052;13.754;2022-11-20T02:33:57;100123.19;;;-5.58;83.84
75063;BME280;63981;51.052;13.754;2022-11-20T02:35:06;100070.25;;;-6.01;83.45
75063;BME280;63981;51.052;13.754;2022-11-20T02:36:11;100066.00;;;-6.03;83.91
75063;BME280;63981;51.052;13.754;2022-11-20T02:37:15;100127.44;;;-5.48;83.02
75063;BME280;63981;51.052;13.754;2022-11-20T02:38:17;100125.75;;;-5.46;83.29
75063;BME280;63981;51.052;13.754;2022-11-20T02:39:19;100117.19;;;-5.51;83.12
75063;BME280;63981;51.052;13.754;2022-11-20T02:40:21;100134.28;;;-5.43;83.11
75063;BME280;63981;51.052;13.754;2022-11-20T02:41:30;100037.78;;;-6.05;82.87
75063;BME280;63981;51.052;13.754;2022-11-20T02:42:31;100129.13;;;-5.38;83.67
75063;BME280;63981;51.052;13.754;2022-11-20T02:43:32;100124.84;;;-5.41;83.08
75063;BME280;63981;51.052;13.754;2022-11-20T02:44:32;100124.88;;;-5.53;83.15
75063;BME280;63981;51.052;13.754;2022-11-20T02:45:33;100124.91;;;-5.59;83.21
75063;BME280;63981;51.052;13.754;2022-11-20T02:46:34;100129.16;;;-5.53;83.39
75063;BME280;63981;51.052;13.754;2022-11-20T02:47:35;100124.00;;;-5.41;83.32
75063;BME280;63981;51.052;13.754;2022-11-20T02:48:36;100119.69;;;-5.38;83.36
75063;BME280;63981;51.052;13.754;2022-11-20T02:49:37;100119.72;;;-5.42;83.31
75063;BME280;63981;51.052;13.754;2022-11-20T02:50:38;100124.00;;;-5.33;82.74
75063;BME280;63981;51.052;13.754;2022-11-20T02:51:39;100123.97;;;-5.30;82.56
75063;BME280;63981;51.052;13.754;2022-11-20T02:52:39;100123.97;;;-5.35;82.40
75063;BME280;63981;51.052;13.754;2022-11-20T02:53:40;100064.19;;;-5.69;82.65
75063;BME280;63981;51.052;13.754;2022-11-20T02:54:41;100128.25;;;-5.36;82.99
75063;BME280;63981;51.052;13.754;2022-11-20T02:55:41;100124.00;;;-5.40;83.38
75063;BME280;63981;51.052;13.754;2022-11-20T02:56:42;100036.06;;;-5.95;82.51
75063;BME280;63981;51.052;13.754;2022-11-20T02:57:43;100115.47;;;-5.46;82.72
75063;BME280;63981;51.052;13.754;2022-11-20T02:58:44;100124.00;;;-5.43;83.06
75063;BME280;63981;51.052;13.754;2022-11-20T02:59:45;100126.56;;;-5.41;82.79
75063;BME280;63981;51.052;13.754;2022-11-20T03:00:45;100124.00;;;-5.41;82.92
75063;BME280;63981;51.052;13.754;2022-11-20T03:01:46;100123.13;;;-5.40;83.04
75063;BME280;63981;51.052;13.754;2022-11-20T03:02:46;100124.88;;;-5.50;83.18
75063;BME280;63981;51.052;13.754;2022-11-20T03:03:47;99995.09;;;-6.33;83.37
75063;BME280;63981;51.052;13.754;2022-11-20T03:04:49;100127.47;;;-5.53;83.41
75063;BME280;63981;51.052;13.754;2022-11-20T03:05:49;100125.75;;;-5.46;83.45
75063;BME280;63981;51.052;13.754;2022-11-20T03:06:50;100121.47;;;-5.53;83.83
75063;BME280;63981;51.052;13.754;2022-11-20T03:07:50;100032.66;;;-6.12;83.81
75063;BME280;63981;51.052;13.754;2022-11-20T03:08:51;100132.63;;;-5.57;84.68
75063;BME280;63981;51.052;13.754;2022-11-20T03:09:52;100128.28;;;-5.49;84.67
75063;BME280;63981;51.052;13.754;2022-11-20T03:10:52;100124.88;;;-5.45;84.55
75063;BME280;63981;51.052;13.754;2022-11-20T03:11:53;100059.06;;;-5.80;83.95
75063;BME280;63981;51.052;13.754;2022-11-20T03:12:54;100120.59;;;-5.43;83.89
75063;BME280;63981;51.052;13.754;2022-11-20T03:13:55;100019.81;;;-5.99;83.49
75063;BME280;63981;51.052;13.754;2022-11-20T03:14:56;100125.72;;;-5.42;83.65
75063;BME280;63981;51.052;13.754;2022-11-20T03:15:57;100042.84;;;-5.83;84.17
75063;BME280;63981;51.052;13.754;2022-11-20T03:16:58;100059.16;;;-5.97;83.83
75063;BME280;63981;51.052;13.754;2022-11-20T03:17:58;100118.06;;;-5.63;84.63
75063;BME280;63981;51.052;13.754;2022-11-20T03:18:59;100101.84;;;-5.71;84.60
75063;BME280;63981;51.052;13.754;2022-11-20T03:20:00;100086.47;;;-5.85;84.58
75063;BME280;63981;51.052;13.754;2022-11-20T03:21:01;100122.34;;;-5.67;84.51
75063;BME280;63981;51.052;13.754;2022-11-20T03:22:01;100117.19;;;-5.62;84.36
75063;BME280;63981;51.052;13.754;2022-11-20T03:23:02;100116.34;;;-5.61;84.37
75063;BME280;63981;51.052;13.754;2022-11-20T03:24:04;100105.25;;;-5.71;84.69
75063;BME280;63981;51.052;13.754;2022-11-20T03:25:05;100108.63;;;-5.52;83.71
75063;BME280;63981;51.052;13.754;2022-11-20T03:27:09;100107.81;;;-5.66;83.85
75063;BME280;63981;51.052;13.754;2022-11-20T03:28:10;100105.25;;;-5.69;84.17
75063;BME280;63981;51.052;13.754;2022-11-20T03:29:10;100104.41;;;-5.73;83.65
75063;BME280;63981;51.052;13.754;2022-11-20T03:30:11;100072.84;;;-5.95;83.98
75063;BME280;63981;51.052;13.754;2022-11-20T03:31:13;100110.38;;;-5.75;84.12
75063;BME280;63981;51.052;13.754;2022-11-20T03:32:14;100101.84;;;-5.73;83.68
75063;BME280;63981;51.052;13.754;2022-11-20T03:33:15;100103.53;;;-5.67;83.83
75063;BME280;63981;51.052;13.754;2022-11-20T03:34:15;100109.53;;;-5.79;84.14
75063;BME280;63981;51.052;13.754;2022-11-20T03:35:16;100112.09;;;-5.77;84.31
75063;BME280;63981;51.052;13.754;2022-11-20T03:36:19;100086.50;;;-6.02;83.62
75063;BME280;63981;51.052;13.754;2022-11-20T03:37:20;100109.56;;;-5.85;84.20
75063;BME280;63981;51.052;13.754;2022-11-20T03:38:21;100106.16;;;-5.84;83.93
75063;BME280;63981;51.052;13.754;2022-11-20T03:39:21;100109.53;;;-5.86;84.47
75063;BME280;63981;51.052;13.754;2022-11-20T03:40:22;100005.38;;;-6.45;84.44
75063;BME280;63981;51.052;13.754;2022-11-20T03:41:28;100012.19;;;-6.54;84.76
75063;BME280;63981;51.052;13.754;2022-11-20T03:42:30;100071.13;;;-6.06;84.37
75063;BME280;63981;51.052;13.754;2022-11-20T03:43:50;100109.56;;;-5.88;84.28
75063;BME280;63981;51.052;13.754;2022-11-20T03:44:51;100049.78;;;-6.27;84.18
75063;BME280;63981;51.052;13.754;2022-11-20T03:45:51;100109.63;;;-5.99;84.77
75063;BME280;63981;51.052;13.754;2022-11-20T03:46:52;100016.47;;;-6.53;84.67
75063;BME280;63981;51.052;13.754;2022-11-20T03:47:53;100113.03;;;-5.98;83.94
75063;BME280;63981;51.052;13.754;2022-11-20T03:48:53;100113.88;;;-5.99;84.52
75063;BME280;63981;51.052;13.754;2022-11-20T03:49:54;100111.31;;;-6.02;83.71
75063;BME280;63981;51.052;13.754;2022-11-20T03:51:13;100111.31;;;-6.04;84.31
75063;BME280;63981;51.052;13.754;2022-11-20T03:52:14;100108.78;;;-6.08;84.65
75063;BME280;63981;51.052;13.754;2022-11-20T03:53:15;100141.25;;;-6.06;84.15
75063;BME280;63981;51.052;13.754;2022-11-20T03:54:16;100113.91;;;-6.07;84.54
75063;BME280;63981;51.052;13.754;2022-11-20T03:55:16;100111.34;;;-6.07;84.03
75063;BME280;63981;51.052;13.754;2022-11-20T03:56:20;100104.50;;;-6.11;84.55
75063;BME280;63981;51.052;13.754;2022-11-20T03:57:20;100115.59;;;-6.06;84.16
75063;BME280;63981;51.052;13.754;2022-11-20T03:58:21;100124.16;;;-6.05;83.87
75063;BME280;63981;51.052;13.754;2022-11-20T03:59:22;100078.84;;;-6.26;83.61
75063;BME280;63981;51.052;13.754;2022-11-20T04:00:22;100115.59;;;-6.04;83.71
75063;BME280;63981;51.052;13.754;2022-11-20T04:01:25;100110.47;;;-6.06;84.14
75063;BME280;63981;51.052;13.754;2022-11-20T04:02:26;100110.47;;;-6.07;84.19
75063;BME280;63981;51.052;13.754;2022-11-20T04:03:26;100108.75;;;-6.04;83.11
75063;BME280;63981;51.052;13.754;2022-11-20T04:04:27;100110.47;;;-6.04;83.74
75063;BME280;63981;51.052;13.754;2022-11-20T04:05:28;100028.44;;;-6.58;83.69
75063;BME280;63981;51.052;13.754;2022-11-20T04:06:30;100106.19;;;-5.93;84.12
75063;BME280;63981;51.052;13.754;2022-11-20T04:07:33;100110.41;;;-5.87;83.73
75063;BME280;63981;51.052;13.754;2022-11-20T04:08:34;100104.44;;;-5.83;83.16
75063;BME280;63981;51.052;13.754;2022-11-20T04:09:35;100104.47;;;-5.94;82.78
75063;BME280;63981;51.052;13.754;2022-11-20T04:10:35;100113.88;;;-5.95;83.44
75063;BME280;63981;51.052;13.754;2022-11-20T04:11:39;100047.25;;;-6.37;83.43
75063;BME280;63981;51.052;13.754;2022-11-20T04:12:40;100107.03;;;-5.94;83.33
75063;BME280;63981;51.052;13.754;2022-11-20T04:13:41;100054.91;;;-6.20;82.97
75063;BME280;63981;51.052;13.754;2022-11-20T04:14:42;100106.13;;;-5.87;83.19
75063;BME280;63981;51.052;13.754;2022-11-20T04:15:43;100103.56;;;-5.81;83.27
75063;BME280;63981;51.052;13.754;2022-11-20T04:16:44;100058.34;;;-6.11;83.49
75063;BME280;63981;51.052;13.754;2022-11-20T04:17:44;100060.03;;;-6.17;83.30
75063;BME280;63981;51.052;13.754;2022-11-20T04:18:45;100013.91;;;-6.33;83.13
75063;BME280;63981;51.052;13.754;2022-11-20T04:19:46;100095.84;;;-5.78;83.10
75063;BME280;63981;51.052;13.754;2022-11-20T04:20:47;100092.44;;;-5.78;82.63
75063;BME280;63981;51.052;13.754;2022-11-20T04:21:47;100051.47;;;-5.98;82.53
75063;BME280;63981;51.052;13.754;2022-11-20T04:22:48;100049.75;;;-6.04;82.10
75063;BME280;63981;51.052;13.754;2022-11-20T04:23:49;100084.72;;;-5.78;82.64
75063;BME280;63981;51.052;13.754;2022-11-20T04:24:50;100087.28;;;-5.75;82.88
75063;BME280;63981;51.052;13.754;2022-11-20T04:25:51;100089.84;;;-5.75;82.73
75063;BME280;63981;51.052;13.754;2022-11-20T04:26:52;100018.16;;;-6.12;82.67
75063;BME280;63981;51.052;13.754;2022-11-20T04:27:52;100086.44;;;-5.74;82.37
75063;BME280;63981;51.052;13.754;2022-11-20T04:28:53;100086.44;;;-5.79;82.99
75063;BME280;63981;51.052;13.754;2022-11-20T04:29:54;100080.44;;;-5.78;83.24
75063;BME280;63981;51.052;13.754;2022-11-20T04:31:01;100084.72;;;-5.78;82.24
75063;BME280;63981;51.052;13.754;2022-11-20T04:32:02;100085.66;;;-5.95;82.38
75063;BME280;63981;51.052;13.754;2022-11-20T04:33:02;100080.53;;;-6.04;82.53
75063;BME280;63981;51.052;13.754;2022-11-20T04:34:05;100003.66;;;-6.56;83.56
75063;BME280;63981;51.052;13.754;2022-11-20T04:35:06;100068.56;;;-6.15;82.90
75063;BME280;63981;51.052;13.754;2022-11-20T04:36:11;100084.84;;;-6.09;83.21
75063;BME280;63981;51.052;13.754;2022-11-20T04:37:12;100079.69;;;-6.07;83.29
75063;BME280;63981;51.052;13.754;2022-11-20T04:38:13;100074.53;;;-6.03;83.03
75063;BME280;63981;51.052;13.754;2022-11-20T04:39:14;100081.38;;;-5.94;83.21
75063;BME280;63981;51.052;13.754;2022-11-20T04:40:18;100071.97;;;-5.90;82.67
75063;BME280;63981;51.052;13.754;2022-11-20T04:41:19;100065.13;;;-5.91;83.00
75063;BME280;63981;51.052;13.754;2022-11-20T04:42:20;100014.72;;;-6.20;83.07
75063;BME280;63981;51.052;13.754;2022-11-20T04:43:31;100043.75;;;-5.95;82.71
75063;BME280;63981;51.052;13.754;2022-11-20T04:44:32;100030.97;;;-6.16;82.25
75063;BME280;63981;51.052;13.754;2022-11-20T04:45:32;100071.94;;;-5.84;82.84
75063;BME280;63981;51.052;13.754;2022-11-20T04:46:42;100054.03;;;-5.95;82.86
75063;BME280;63981;51.052;13.754;2022-11-20T04:47:43;100068.47;;;-5.86;82.78
75063;BME280;63981;51.052;13.754;2022-11-20T04:48:44;100070.28;;;-5.96;83.03
75063;BME280;63981;51.052;13.754;2022-11-20T04:49:45;100067.69;;;-5.93;82.35
75063;BME280;63981;51.052;13.754;2022-11-20T04:50:46;100072.84;;;-6.05;82.60
75063;BME280;63981;51.052;13.754;2022-11-20T04:51:46;100056.63;;;-6.21;83.16
75063;BME280;63981;51.052;13.754;2022-11-20T04:52:47;100071.13;;;-6.12;82.97
75063;BME280;63981;51.052;13.754;2022-11-20T04:53:47;100073.72;;;-6.09;83.56
75063;BME280;63981;51.052;13.754;2022-11-20T04:54:48;100075.41;;;-6.16;83.32
75063;BME280;63981;51.052;13.754;2022-11-20T04:55:49;100074.56;;;-6.13;83.61
75063;BME280;63981;51.052;13.754;2022-11-20T04:56:50;99970.34;;;-6.71;83.10
75063;BME280;63981;51.052;13.754;2022-11-20T04:57:51;100074.56;;;-6.10;83.14
75063;BME280;63981;51.052;13.754;2022-11-20T04:58:52;100080.53;;;-6.01;83.51
75063;BME280;63981;51.052;13.754;2022-11-20T04:59:52;100077.09;;;-6.01;83.20
75063;BME280;63981;51.052;13.754;2022-11-20T05:00:53;100077.97;;;-6.02;82.77
75063;BME280;63981;51.052;13.754;2022-11-20T05:01:54;100080.53;;;-6.01;83.34
75063;BME280;63981;51.052;13.754;2022-11-20T05:02:54;100082.25;;;-6.03;83.77
75063;BME280;63981;51.052;13.754;2022-11-20T05:03:55;100054.06;;;-6.30;83.53
75063;BME280;63981;51.052;13.754;2022-11-20T05:04:56;100077.13;;;-6.10;83.13
75063;BME280;63981;51.052;13.754;2022-11-20T05:05:59;100083.09;;;-6.04;83.52
75063;BME280;63981;51.052;13.754;2022-11-20T05:07:00;99998.50;;;-6.42;83.47
75063;BME280;63981;51.052;13.754;2022-11-20T05:08:01;100071.91;;;-5.89;83.74
75063;BME280;63981;51.052;13.754;2022-11-20T05:09:02;100060.88;;;-6.03;83.55
75063;BME280;63981;51.052;13.754;2022-11-20T05:10:03;100087.31;;;-5.87;83.76
75063;BME280;63981;51.052;13.754;2022-11-20T05:11:10;100024.97;;;-6.17;83.75
75063;BME280;63981;51.052;13.754;2022-11-20T05:12:11;100091.66;;;-5.94;83.60
75063;BME280;63981;51.052;13.754;2022-11-20T05:13:12;100056.63;;;-6.21;83.75
75063;BME280;63981;51.052;13.754;2022-11-20T05:14:13;100091.66;;;-5.94;83.58
75063;BME280;63981;51.052;13.754;2022-11-20T05:15:13;100049.78;;;-6.23;84.02
75063;BME280;63981;51.052;13.754;2022-11-20T05:16:17;100087.38;;;-6.06;83.91
75063;BME280;63981;51.052;13.754;2022-11-20T05:17:17;100084.81;;;-6.06;84.23
75063;BME280;63981;51.052;13.754;2022-11-20T05:18:18;100081.41;;;-6.14;84.04
75063;BME280;63981;51.052;13.754;2022-11-20T05:19:19;99990.88;;;-6.74;84.24
75063;BME280;63981;51.052;13.754;2022-11-20T05:20:19;100083.13;;;-6.19;84.02
75063;BME280;63981;51.052;13.754;2022-11-20T05:21:20;100078.00;;;-6.19;84.57
75063;BME280;63981;51.052;13.754;2022-11-20T05:22:21;100072.84;;;-6.17;84.96
75063;BME280;63981;51.052;13.754;2022-11-20T05:23:22;100048.91;;;-6.26;84.51
75063;BME280;63981;51.052;13.754;2022-11-20T05:24:23;99981.47;;;-6.60;84.13
75063;BME280;63981;51.052;13.754;2022-11-20T05:25:24;100075.41;;;-5.93;83.58
75063;BME280;63981;51.052;13.754;2022-11-20T05:26:24;100078.81;;;-5.94;84.08